Time;durP1;ratioP1;P1;durP2;ratioP2;P2;SDS_P1;SDS_P2;PMS_P1;PMS_P2;Temp;Humidity;BMP_temperature;BMP_pressure;BME280_temperature;BME280_humidity;BME280_pressure;Samples;Min_cycle;Max_cycle;Signal;HPM_P1;HPM_P2
2022/04/20 00:01:19;;;;;;;;;;;;;;;20.20;41.36;101242.84;5129366;27;2478;-60
2022/04/20 00:03:46;;;;;;;;;;;;;;;20.18;41.41;101245.59;5128640;27;2574;-58
2022/04/20 00:06:12;;;;;;;;;;;;;;;20.21;41.39;101241.47;5130368;27;2269;-59
2022/04/20 00:08:38;;;;;;;;;;;;;;;20.21;41.43;101232.84;5129445;27;1869;-58
2022/04/20 00:11:05;;;;;;;;;;;;;;;20.20;41.31;101237.06;5127963;27;2627;-58
2022/04/20 00:13:31;;;;;;;;;;;;;;;20.20;41.43;101242.84;5130689;27;2324;-58
2022/04/20 00:16:06;;;;;;;;;;;;;;;20.19;41.44;101242.09;5128175;27;2867;-58
2022/04/20 00:18:41;;;;;;;;;;;;;;;20.19;41.51;101244.22;5112048;27;2609;-58
2022/04/20 00:21:09;;;;;;;;;;;;;;;20.20;41.48;101248.56;5129058;27;2761;-59
2022/04/20 00:23:35;;;;;;;;;;;;;;;20.21;41.40;101255.84;5129547;27;1914;-59
2022/04/20 00:26:02;;;;;;;;;;;;;;;20.19;41.48;101253.59;5130184;27;2728;-59
2022/04/20 00:28:29;;;;;;;;;;;;;;;20.20;41.43;101251.47;5128045;27;2926;-58
2022/04/20 00:30:55;;;;;;;;;;;;;;;20.19;41.50;101261.47;5106120;27;2862;-59
2022/04/20 00:33:21;;;;;;;;;;;;;;;20.20;41.47;101255.09;5129276;27;2948;-58
2022/04/20 00:35:48;;;;;;;;;;;;;;;20.21;41.48;101250.09;5127760;27;2837;-59
2022/04/20 00:38:16;;;;;;;;;;;;;;;20.20;41.50;101243.59;5104497;27;2921;-58
2022/04/20 00:40:47;;;;;;;;;;;;;;;20.20;41.55;101237.84;5110409;27;2563;-58
2022/04/20 00:43:13;;;;;;;;;;;;;;;20.21;41.46;101247.94;5126862;27;2891;-58
2022/04/20 00:45:40;;;;;;;;;;;;;;;20.21;41.53;101247.22;5110761;27;1913;-58
2022/04/20 00:48:06;;;;;;;;;;;;;;;20.21;41.43;101235.72;5130344;27;2511;-58
2022/04/20 00:50:33;;;;;;;;;;;;;;;20.22;41.45;101240.06;5110835;27;2712;-59
2022/04/20 00:53:00;;;;;;;;;;;;;;;20.21;41.44;101247.22;5111327;27;2854;-58
2022/04/20 00:55:28;;;;;;;;;;;;;;;20.22;41.50;101242.94;5126127;27;2973;-58
2022/04/20 00:57:56;;;;;;;;;;;;;;;20.20;41.47;101237.84;5104612;27;2892;-59
2022/04/20 01:00:22;;;;;;;;;;;;;;;20.22;41.40;101234.31;5111473;27;2704;-58
2022/04/20 01:02:49;;;;;;;;;;;;;;;20.22;41.42;101245.81;5117830;27;2607;-59
2022/04/20 01:05:16;;;;;;;;;;;;;;;20.21;41.33;101242.19;5127207;27;2791;-58
2022/04/20 01:08:01;;;;;;;;;;;;;;;20.21;41.49;101247.22;5112306;27;2802;-58
2022/04/20 01:10:58;;;;;;;;;;;;;;;20.21;41.45;101244.34;5098202;28;2781;-58
2022/04/20 01:13:42;;;;;;;;;;;;;;;20.20;41.38;101248.56;5124984;27;2763;-59
2022/04/20 01:16:27;;;;;;;;;;;;;;;20.20;41.40;101246.47;5127445;27;2736;-58
2022/04/20 01:19:11;;;;;;;;;;;;;;;20.21;41.39;101250.09;5125909;27;1953;-58
2022/04/20 01:21:52;;;;;;;;;;;;;;;20.19;41.50;101247.09;5105824;27;2895;-58
2022/04/20 01:24:37;;;;;;;;;;;;;;;20.19;41.40;101241.34;5128308;27;2853;-58
2022/04/20 01:27:16;;;;;;;;;;;;;;;20.18;41.47;101239.84;5106009;27;2570;-59
2022/04/20 01:29:53;;;;;;;;;;;;;;;20.16;41.46;101242.59;5101147;28;2457;-58
2022/04/20 01:32:33;;;;;;;;;;;;;;;20.16;41.48;101239.72;5100007;28;2800;-58
2022/04/20 01:35:19;;;;;;;;;;;;;;;20.15;41.44;101252.63;5106865;28;1631;-58
2022/04/20 01:37:46;;;;;;;;;;;;;;;20.16;41.59;101248.34;5125412;27;2275;-58
2022/04/20 01:40:12;;;;;;;;;;;;;;;20.16;41.46;101245.47;5111367;27;2573;-58
2022/04/20 01:42:39;;;;;;;;;;;;;;;20.14;41.50;101233.91;5105110;28;2621;-59
2022/04/20 01:45:08;;;;;;;;;;;;;;;20.14;41.47;101240.38;5105196;28;2473;-58
2022/04/20 01:47:41;;;;;;;;;;;;;;;20.14;41.46;101240.38;5107323;28;2393;-58
2022/04/20 01:50:26;;;;;;;;;;;;;;;20.15;41.46;101238.25;5107057;28;2442;-59
2022/04/20 01:53:14;;;;;;;;;;;;;;;20.14;41.33;101234.63;5100745;28;2533;-58
2022/04/20 01:55:43;;;;;;;;;;;;;;;20.14;41.37;101236.78;5105984;28;2584;-58
2022/04/20 01:58:23;;;;;;;;;;;;;;;20.14;41.36;101239.66;5106102;28;2397;-58
2022/04/20 02:00:56;;;;;;;;;;;;;;;20.12;41.36;101243.16;5104417;28;2259;-58
2022/04/20 02:03:30;;;;;;;;;;;;;;;20.12;41.42;101242.41;5100990;28;1793;-59
2022/04/20 02:06:02;;;;;;;;;;;;;;;20.12;41.40;101236.66;5105216;28;2616;-58
2022/04/20 02:09:01;;;;;;;;;;;;;;;20.12;41.41;101230.91;5095994;28;2631;-58
2022/04/20 02:11:46;;;;;;;;;;;;;;;20.13;41.48;101226.63;5104671;28;2820;-59
2022/04/20 02:14:20;;;;;;;;;;;;;;;20.12;41.48;101225.16;5098791;28;2429;-59
2022/04/20 02:16:55;;;;;;;;;;;;;;;20.12;41.47;101225.16;5105371;28;2602;-59
2022/04/20 02:19:35;;;;;;;;;;;;;;;20.12;41.51;101225.16;5101244;28;2598;-59
2022/04/20 02:22:10;;;;;;;;;;;;;;;20.12;41.53;101219.41;5099731;28;2474;-58
2022/04/20 02:24:36;;;;;;;;;;;;;;;20.11;41.43;101220.78;5113264;27;1937;-58
2022/04/20 02:27:05;;;;;;;;;;;;;;;20.12;41.42;101222.28;5103812;28;2446;-59
2022/04/20 02:29:31;;;;;;;;;;;;;;;20.12;41.42;101228.03;5105862;27;2581;-58
2022/04/20 02:31:58;;;;;;;;;;;;;;;20.11;41.38;101235.16;5124877;27;2584;-58
2022/04/20 02:34:25;;;;;;;;;;;;;;;20.11;41.50;101229.41;5104190;27;2343;-58
2022/04/20 02:36:52;;;;;;;;;;;;;;;20.10;41.54;101228.66;5125106;27;1652;-58
2022/04/20 02:39:20;;;;;;;;;;;;;;;20.09;41.49;101222.19;5108724;27;2671;-58
2022/04/20 02:41:47;;;;;;;;;;;;;;;20.08;41.48;101220.66;5124906;27;2583;-58
2022/04/20 02:44:14;;;;;;;;;;;;;;;20.09;41.40;101219.31;5126551;27;2171;-58
2022/04/20 02:46:41;;;;;;;;;;;;;;;20.08;41.46;101214.19;5124625;27;2204;-58
2022/04/20 02:49:08;;;;;;;;;;;;;;;20.09;41.46;101219.31;5103742;27;2535;-58
2022/04/20 02:51:34;;;;;;;;;;;;;;;20.11;41.37;101217.91;5107708;27;2309;-59
2022/04/20 02:54:02;;;;;;;;;;;;;;;20.09;41.44;101216.44;5123250;27;2650;-58
2022/04/20 02:56:31;;;;;;;;;;;;;;;20.08;41.41;101220.66;5123173;27;2584;-58
2022/04/20 02:58:57;;;;;;;;;;;;;;;20.07;41.45;101213.44;5126348;27;1613;-58
2022/04/20 03:01:25;;;;;;;;;;;;;;;20.08;41.57;101220.66;5108546;27;2860;-58
2022/04/20 03:03:52;;;;;;;;;;;;;;;20.09;41.59;101216.44;5125980;27;2512;-58
2022/04/20 03:06:27;;;;;;;;;;;;;;;20.08;41.49;101214.91;5115485;27;2671;-58
2022/04/20 03:08:54;;;;;;;;;;;;;;;20.09;41.55;101216.44;5113559;27;2387;-58
2022/04/20 03:11:24;;;;;;;;;;;;;;;20.08;41.64;101209.16;5108224;27;2504;-58
2022/04/20 03:13:50;;;;;;;;;;;;;;;20.09;41.55;101216.44;5124726;27;2591;-58
2022/04/20 03:16:19;;;;;;;;;;;;;;;20.09;41.62;101222.19;5107370;27;2520;-58
2022/04/20 03:18:48;;;;;;;;;;;;;;;20.12;41.66;101225.16;5108244;27;2515;-58
2022/04/20 03:21:18;;;;;;;;;;;;;;;20.12;41.52;101219.41;5124548;27;2429;-58
2022/04/20 03:23:45;;;;;;;;;;;;;;;20.12;41.63;101222.28;5126015;27;1835;-58
2022/04/20 03:26:19;;;;;;;;;;;;;;;20.12;41.59;101219.41;5124530;27;2576;-58
2022/04/20 03:29:04;;;;;;;;;;;;;;;20.12;41.60;101213.66;5102348;27;2251;-58
2022/04/20 03:31:31;;;;;;;;;;;;;;;20.14;41.60;101222.41;5125525;27;2763;-59
2022/04/20 03:33:58;;;;;;;;;;;;;;;20.13;41.60;101218.00;5107564;28;2462;-59
2022/04/20 03:36:24;;;;;;;;;;;;;;;20.14;41.63;101219.53;5125194;27;1626;-59
2022/04/20 03:38:50;;;;;;;;;;;;;;;20.16;41.64;101208.09;5108937;27;2445;-59
2022/04/20 03:41:17;;;;;;;;;;;;;;;20.16;41.63;101208.09;5125839;27;2537;-59
2022/04/20 03:43:43;;;;;;;;;;;;;;;20.16;41.70;101231.09;5106531;28;1999;-59
2022/04/20 03:46:11;;;;;;;;;;;;;;;20.16;41.58;101213.84;5125474;27;2500;-59
2022/04/20 03:48:37;;;;;;;;;;;;;;;20.16;41.56;101228.22;5125465;27;1617;-59
2022/04/20 03:51:04;;;;;;;;;;;;;;;20.15;41.66;101235.38;5126142;28;2211;-59
2022/04/20 03:53:31;;;;;;;;;;;;;;;20.16;41.62;101228.22;5107790;28;2641;-59
2022/04/20 03:55:59;;;;;;;;;;;;;;;20.15;41.67;101221.00;5122885;28;2478;-59
2022/04/20 03:58:25;;;;;;;;;;;;;;;20.16;41.67;101219.59;5107950;28;2388;-59
2022/04/20 04:00:52;;;;;;;;;;;;;;;20.16;41.69;101225.34;5108158;28;2371;-59
2022/04/20 04:03:19;;;;;;;;;;;;;;;20.17;41.66;101232.63;5101504;28;2647;-59
2022/04/20 04:05:47;;;;;;;;;;;;;;;20.18;41.67;101228.34;5107906;28;2650;-59
2022/04/20 04:08:20;;;;;;;;;;;;;;;20.19;41.64;101229.84;5102523;28;2497;-59
2022/04/20 04:10:46;;;;;;;;;;;;;;;20.19;41.68;101221.22;5106740;28;2743;-59
2022/04/20 04:13:14;;;;;;;;;;;;;;;20.18;41.66;101228.34;5122722;28;2660;-59
2022/04/20 04:15:45;;;;;;;;;;;;;;;20.21;41.68;101238.59;5107068;28;2285;-58
2022/04/20 04:18:14;;;;;;;;;;;;;;;20.20;41.62;101231.31;5123878;28;2563;-59
2022/04/20 04:20:45;;;;;;;;;;;;;;;20.21;41.63;101224.22;5100654;28;2669;-59
2022/04/20 04:23:14;;;;;;;;;;;;;;;20.19;41.66;101230.59;5109121;28;1821;-59
2022/04/20 04:25:43;;;;;;;;;;;;;;;20.21;41.67;101221.34;5089653;28;2482;-59
2022/04/20 04:28:23;;;;;;;;;;;;;;;20.21;41.63;101215.59;5108335;28;2659;-59
2022/04/20 04:30:49;;;;;;;;;;;;;;;20.21;41.82;101227.09;5107029;28;2639;-59
2022/04/20 04:33:16;;;;;;;;;;;;;;;20.22;41.63;101223.56;5123649;28;2441;-59
2022/04/20 04:35:43;;;;;;;;;;;;;;;20.23;41.59;101218.56;5108325;28;1665;-59
2022/04/20 04:38:12;;;;;;;;;;;;;;;20.24;41.69;101225.78;5106603;28;2509;-59
2022/04/20 04:40:38;;;;;;;;;;;;;;;20.23;41.64;101224.31;5105921;28;2654;-59
2022/04/20 04:43:05;;;;;;;;;;;;;;;20.24;41.66;101220.03;5106092;28;2528;-59
2022/04/20 04:48:42;;;;;;;;;;;;;;;20.23;41.72;101219.31;5127577;27;2355;-58
2022/04/20 04:51:13;;;;;;;;;;;;;;;20.23;41.60;101219.31;5111172;27;1657;-58
2022/04/20 04:53:42;;;;;;;;;;;;;;;20.26;41.62;101220.16;5126866;27;2666;-59
2022/04/20 04:56:14;;;;;;;;;;;;;;;20.25;41.71;101207.91;5109622;27;2524;-59
2022/04/20 04:58:45;;;;;;;;;;;;;;;20.25;41.67;101205.03;5110020;27;2514;-59
2022/04/20 05:01:12;;;;;;;;;;;;;;;20.25;41.65;101207.16;5110893;27;2607;-58
2022/04/20 05:03:39;;;;;;;;;;;;;;;20.24;41.67;101205.66;5110451;27;2074;-59
2022/04/20 05:06:07;;;;;;;;;;;;;;;20.26;41.63;101217.28;5106369;27;1973;-59
2022/04/20 05:09:06;;;;;;;;;;;;;;;20.23;41.75;101210.69;5102449;27;3338;-59
2022/04/20 05:11:35;;;;;;;;;;;;;;;20.26;41.75;101223.03;5104478;27;3228;-60
2022/04/20 05:14:03;;;;;;;;;;;;;;;20.27;41.60;101215.88;5103036;27;2607;-59
2022/04/20 05:16:31;;;;;;;;;;;;;;;20.27;41.58;101201.50;5105503;27;2728;-59
2022/04/20 05:18:59;;;;;;;;;;;;;;;20.28;41.67;101220.25;5128804;27;2449;-60
2022/04/20 05:21:25;;;;;;;;;;;;;;;20.27;41.65;101201.50;5124851;27;2392;-59
2022/04/20 05:23:54;;;;;;;;;;;;;;;20.27;41.70;101201.50;5104574;27;2678;-59
2022/04/20 05:26:21;;;;;;;;;;;;;;;20.28;41.66;101203.00;5108916;27;2514;-59
2022/04/20 05:28:48;;;;;;;;;;;;;;;20.28;41.63;101209.50;5106658;27;2820;-59
2022/04/20 05:31:16;;;;;;;;;;;;;;;20.27;41.73;101221.63;5107163;27;2409;-59
2022/04/20 05:33:44;;;;;;;;;;;;;;;20.27;41.67;101210.13;5107447;27;2474;-60
2022/04/20 05:36:12;;;;;;;;;;;;;;;20.27;41.70;101218.75;5103608;27;2615;-59
2022/04/20 05:41:42;;;;;;;;;;;;;;;20.28;41.69;101226.00;5126865;27;2361;-60
2022/04/20 05:44:16;;;;;;;;;;;;;;;20.29;41.68;101216.00;5106967;27;2393;-59
2022/04/20 05:46:42;;;;;;;;;;;;;;;20.29;41.71;101221.75;5117848;27;2491;-58
2022/04/20 05:49:12;;;;;;;;;;;;;;;20.27;41.68;101224.50;5124214;27;2438;-59
2022/04/20 05:51:39;;;;;;;;;;;;;;;20.29;41.70;101227.50;5109669;27;2731;-59
2022/04/20 05:54:06;;;;;;;;;;;;;;;20.29;41.69;101221.75;5108510;27;2465;-59
2022/04/20 05:56:35;;;;;;;;;;;;;;;20.29;41.78;101228.25;5108542;27;2435;-58
2022/04/20 05:59:03;;;;;;;;;;;;;;;20.30;41.76;101231.88;5108994;27;2633;-59
2022/04/20 06:01:31;;;;;;;;;;;;;;;20.31;41.67;101230.47;5106370;27;2521;-59
2022/04/20 06:04:02;;;;;;;;;;;;;;;20.31;41.65;101230.47;5122896;27;2429;-59
2022/04/20 06:06:34;;;;;;;;;;;;;;;20.31;41.70;101236.22;5106574;27;2760;-59
2022/04/20 06:09:13;;;;;;;;;;;;;;;20.31;41.75;101224.72;5122302;27;2490;-59
2022/04/20 06:11:53;;;;;;;;;;;;;;;20.29;41.72;101227.50;5116545;27;2563;-59
2022/04/20 06:14:22;;;;;;;;;;;;;;;20.28;41.76;101231.78;5128134;27;1858;-59
2022/04/20 06:17:03;;;;;;;;;;;;;;;20.28;41.82;101228.91;5107929;27;2703;-59
2022/04/20 06:19:56;;;;;;;;;;;;;;;20.29;41.73;101236.13;5123212;27;2429;-59
2022/04/20 06:22:38;;;;;;;;;;;;;;;20.29;41.82;101244.75;5108278;27;2402;-59
2022/04/20 06:25:23;;;;;;;;;;;;;;;20.30;41.73;101240.50;5123626;27;2601;-59
2022/04/20 06:28:08;;;;;;;;;;;;;;;20.29;41.75;101244.75;5125260;27;2662;-59
2022/04/20 06:31:00;;;;;;;;;;;;;;;20.29;41.72;101236.13;5120508;27;2533;-59
2022/04/20 06:33:47;;;;;;;;;;;;;;;20.30;41.68;101234.75;5094331;27;2401;-59
2022/04/20 06:36:37;;;;;;;;;;;;;;;20.32;41.71;101236.97;5113750;27;1892;-58
2022/04/20 06:39:14;;;;;;;;;;;;;;;20.30;41.60;101234.75;5107723;27;2710;-59
2022/04/20 06:41:51;;;;;;;;;;;;;;;20.31;41.73;101241.97;5126455;27;2340;-59
2022/04/20 06:44:37;;;;;;;;;;;;;;;20.31;41.64;101233.34;5125580;27;2509;-58
2022/04/20 06:47:32;;;;;;;;;;;;;;;20.31;41.68;101236.22;5123928;27;2215;-59
2022/04/20 06:50:08;;;;;;;;;;;;;;;20.31;41.71;101236.22;5123485;27;2496;-59
2022/04/20 07:00:58;;;;;;;;;;;;;;;20.30;41.69;101226.88;5109763;27;1755;-59
2022/04/20 07:03:48;;;;;;;;;;;;;;;20.29;41.63;101233.25;5124153;27;2570;-59
2022/04/20 07:06:29;;;;;;;;;;;;;;;20.29;41.67;101221.75;5107066;27;2656;-59
2022/04/20 07:09:14;;;;;;;;;;;;;;;20.29;41.76;101216.75;5125510;27;2674;-58
2022/04/20 07:12:03;;;;;;;;;;;;;;;20.30;41.63;101223.25;5107543;27;2460;-59
2022/04/20 07:14:32;;;;;;;;;;;;;;;20.30;41.68;101229.00;5103183;27;2459;-58
2022/04/20 07:16:59;;;;;;;;;;;;;;;20.30;41.68;101226.13;5125259;27;2220;-59
2022/04/20 07:19:30;;;;;;;;;;;;;;;20.30;41.61;101217.50;5103938;27;2437;-59
2022/04/20 07:22:15;;;;;;;;;;;;;;;20.30;41.68;101223.25;5126596;27;2438;-58
2022/04/20 07:24:47;;;;;;;;;;;;;;;20.29;41.66;101227.50;5124243;27;2458;-58
2022/04/20 07:27:32;;;;;;;;;;;;;;;20.27;41.63;101225.28;5125927;27;2803;-59
2022/04/20 07:30:26;;;;;;;;;;;;;;;20.29;41.65;101224.63;5122676;27;2411;-59
2022/04/20 07:33:16;;;;;;;;;;;;;;;20.29;41.69;101233.25;5086694;27;2265;-59
2022/04/20 07:36:02;;;;;;;;;;;;;;;20.28;41.61;101226.75;5107651;27;2332;-59
2022/04/20 07:38:49;;;;;;;;;;;;;;;20.28;41.60;101214.50;5106392;27;2544;-58
2022/04/20 07:41:34;;;;;;;;;;;;;;;20.27;41.62;101219.53;5126786;27;1598;-59
2022/04/20 07:44:08;;;;;;;;;;;;;;;20.28;41.59;101228.91;5106073;27;2574;-59
2022/04/20 07:46:54;;;;;;;;;;;;;;;20.27;41.61;101230.25;5108638;27;2351;-59
2022/04/20 07:52:37;;;;;;;;;;;;;;;20.26;41.56;101234.53;5107324;28;2377;-59
2022/04/20 07:55:11;;;;;;;;;;;;;;;20.25;41.64;101238.81;5107148;28;2600;-59
2022/04/20 07:57:45;;;;;;;;;;;;;;;20.26;41.69;101234.53;5120417;28;2554;-59
2022/04/20 08:00:30;;;;;;;;;;;;;;;20.26;41.61;101231.66;5123597;28;2522;-59
2022/04/20 08:03:19;;;;;;;;;;;;;;;20.25;41.63;101238.81;5123658;28;2358;-59
2022/04/20 08:05:48;;;;;;;;;;;;;;;20.24;41.61;101240.19;5104500;28;2644;-59
2022/04/20 08:08:16;;;;;;;;;;;;;;;20.24;41.58;101237.31;5098762;28;2442;-59
2022/04/20 08:10:42;;;;;;;;;;;;;;;20.22;41.58;101237.94;5124322;28;2570;-59
2022/04/20 08:15:55;;;;;;;;;;;;;;;20.23;41.63;101241.56;5122485;28;2431;-58
2022/04/20 08:18:23;;;;;;;;;;;;;;;20.23;41.64;101247.31;5102661;28;2733;-58
2022/04/20 08:21:10;;;;;;;;;;;;;;;20.23;41.55;101242.31;5126114;27;2397;-59
2022/04/20 08:23:37;;;;;;;;;;;;;;;20.22;41.65;101240.06;5128860;27;2989;-58
2022/04/20 08:26:04;;;;;;;;;;;;;;;20.22;41.56;101234.31;5128785;27;2684;-59
2022/04/20 08:28:30;;;;;;;;;;;;;;;20.22;41.62;101234.31;5128940;27;2558;-59
2022/04/20 08:30:57;;;;;;;;;;;;;;;20.21;41.69;101218.47;5122986;27;2683;-59
2022/04/20 08:33:23;;;;;;;;;;;;;;;20.22;41.61;101228.56;5125429;27;2407;-59
2022/04/20 08:35:50;;;;;;;;;;;;;;;20.20;41.64;101226.34;5129855;27;2585;-58
2022/04/20 08:38:16;;;;;;;;;;;;;;;20.20;41.60;101214.06;5124663;27;2629;-59
2022/04/20 08:40:42;;;;;;;;;;;;;;;20.21;41.68;101216.31;5130230;27;2604;-59
2022/04/20 08:43:09;;;;;;;;;;;;;;;20.21;41.67;101227.09;5126959;27;2412;-59
2022/04/20 08:45:37;;;;;;;;;;;;;;;20.20;41.72;101216.94;5110991;27;2437;-59
2022/04/20 08:48:04;;;;;;;;;;;;;;;20.19;41.64;101218.34;5128000;27;2418;-59
2022/04/20 08:50:31;;;;;;;;;;;;;;;20.20;41.67;101219.81;5127147;27;2571;-58
2022/04/20 08:52:58;;;;;;;;;;;;;;;20.18;41.63;101211.84;5128519;27;2593;-58
2022/04/20 08:55:24;;;;;;;;;;;;;;;20.19;41.71;101212.59;5127783;27;2388;-59
2022/04/20 08:57:52;;;;;;;;;;;;;;;20.18;41.60;101219.72;5127278;27;2771;-59
2022/04/20 09:00:27;;;;;;;;;;;;;;;20.16;41.61;101217.50;5129362;27;2272;-59
2022/04/20 09:02:55;;;;;;;;;;;;;;;20.17;41.68;101221.13;5122030;27;2552;-59
2022/04/20 09:05:25;;;;;;;;;;;;;;;20.18;41.67;101211.09;5129089;27;2310;-59
2022/04/20 09:07:52;;;;;;;;;;;;;;;20.17;41.64;101216.09;5125665;27;2616;-59
2022/04/20 09:10:18;;;;;;;;;;;;;;;20.16;41.55;101213.84;5127646;27;2434;-59
2022/04/20 09:12:45;;;;;;;;;;;;;;;20.16;41.70;101213.84;5129259;27;2715;-59
2022/04/20 09:15:15;;;;;;;;;;;;;;;20.15;41.64;101207.38;5125066;27;2493;-58
2022/04/20 09:17:44;;;;;;;;;;;;;;;20.16;41.64;101208.09;5127837;27;2387;-59
2022/04/20 09:20:17;;;;;;;;;;;;;;;20.17;41.68;101215.34;5124915;27;2568;-59
2022/04/20 09:23:02;;;;;;;;;;;;;;;20.16;41.65;101220.38;5127748;27;2581;-59
2022/04/20 09:25:30;;;;;;;;;;;;;;;20.16;41.59;101219.59;5126529;27;2562;-59
2022/04/20 09:27:56;;;;;;;;;;;;;;;20.17;41.59;101226.88;5127829;27;2574;-58
2022/04/20 09:30:22;;;;;;;;;;;;;;;20.16;41.60;101226.13;5127260;27;2450;-59
2022/04/20 09:32:49;;;;;;;;;;;;;;;20.17;41.42;101226.88;5123272;27;2731;-59
2022/04/20 09:35:19;;;;;;;;;;;;;;;20.17;41.61;101232.63;5116477;27;2364;-58
2022/04/20 09:37:45;;;;;;;;;;;;;;;20.16;41.61;101237.63;5122604;27;3337;-59
2022/04/20 09:40:31;;;;;;;;;;;;;;;20.15;41.65;101235.38;5110714;27;2552;-60
2022/04/20 09:43:04;;;;;;;;;;;;;;;20.16;41.65;101236.84;5125901;27;2699;-59
2022/04/20 09:45:30;;;;;;;;;;;;;;;20.15;41.63;101241.13;5108340;27;3106;-59
2022/04/20 09:50:43;;;;;;;;;;;;;;;20.15;41.60;101246.88;5126812;27;2635;-59
2022/04/20 09:53:12;;;;;;;;;;;;;;;20.15;41.64;101241.13;5128444;27;2576;-59
2022/04/20 09:55:39;;;;;;;;;;;;;;;20.15;41.52;101246.88;5128612;27;1676;-59
2022/04/20 09:58:12;;;;;;;;;;;;;;;20.14;41.66;101239.66;5127977;27;2463;-59
2022/04/20 10:00:45;;;;;;;;;;;;;;;20.14;41.65;101233.91;5125075;27;3244;-60
2022/04/20 10:03:21;;;;;;;;;;;;;;;20.13;41.67;101229.50;5126912;27;2556;-60
2022/04/20 10:05:49;;;;;;;;;;;;;;;20.14;41.65;101228.16;5109130;27;2548;-59
2022/04/20 10:08:16;;;;;;;;;;;;;;;20.13;41.69;101229.50;5120320;27;3323;-60
2022/04/20 10:10:43;;;;;;;;;;;;;;;20.13;41.66;101226.63;5103450;27;3270;-59
2022/04/20 10:13:09;;;;;;;;;;;;;;;20.13;41.68;101229.50;5125252;27;3249;-59
2022/04/20 10:18:21;;;;;;;;;;;;;;;20.12;41.75;101230.91;5122623;27;3298;-60
2022/04/20 10:20:48;;;;;;;;;;;;;;;20.11;41.79;101224.41;5128087;27;1633;-59
2022/04/20 10:23:15;;;;;;;;;;;;;;;20.12;41.76;101225.16;5126427;27;2437;-60
2022/04/20 10:25:41;;;;;;;;;;;;;;;20.12;41.74;101219.41;5107865;27;2593;-59
2022/04/20 10:28:13;;;;;;;;;;;;;;;20.11;41.85;101212.16;5127614;27;2521;-60
2022/04/20 10:30:50;;;;;;;;;;;;;;;20.11;41.72;101212.16;5122995;27;3122;-60
2022/04/20 10:33:19;;;;;;;;;;;;;;;20.13;41.78;101215.16;5107688;27;1591;-59
2022/04/20 10:36:01;;;;;;;;;;;;;;;20.13;41.81;101203.63;5085150;27;3268;-59
2022/04/20 10:38:31;;;;;;;;;;;;;;;20.13;41.86;101203.63;5103002;27;3432;-59
2022/04/20 10:41:12;;;;;;;;;;;;;;;20.14;41.82;101200.13;5103610;27;3289;-59
2022/04/20 10:43:41;;;;;;;;;;;;;;;20.14;41.79;101187.91;5122205;27;2500;-60
2022/04/20 10:46:14;;;;;;;;;;;;;;;20.14;41.82;101187.91;5118784;27;3609;-59
2022/04/20 10:48:44;;;;;;;;;;;;;;;20.13;41.76;101167.00;5123556;27;3334;-59
2022/04/20 10:51:12;;;;;;;;;;;;;;;20.13;41.84;101172.75;5121281;27;2891;-60
2022/04/20 10:53:38;;;;;;;;;;;;;;;20.13;41.84;101175.63;5119095;27;3323;-59
2022/04/20 10:56:04;;;;;;;;;;;;;;;20.13;41.85;101166.25;5094558;27;3382;-60
2022/04/20 10:58:31;;;;;;;;;;;;;;;20.14;41.82;101164.91;5125892;27;2410;-60
2022/04/20 11:01:10;;;;;;;;;;;;;;;20.15;41.84;101166.38;5124447;27;2171;-60
2022/04/20 11:03:55;;;;;;;;;;;;;;;20.16;41.87;101150.59;5117889;27;3754;-60
2022/04/20 11:06:25;;;;;;;;;;;;;;;20.15;41.95;101143.38;5117063;27;3458;-60
2022/04/20 11:08:51;;;;;;;;;;;;;;;20.15;41.92;101149.13;5119611;27;3357;-60
2022/04/20 11:19:50;;;;;;;;;;;;;;;20.12;42.06;101141.78;5110941;27;2596;-61
2022/04/20 11:22:22;;;;;;;;;;;;;;;20.12;41.99;101130.28;5127610;27;1641;-60
2022/04/20 11:24:57;;;;;;;;;;;;;;;20.15;42.29;101137.63;5107237;27;2339;-59
2022/04/20 11:27:33;;;;;;;;;;;;;;;20.14;42.46;101142.63;5125997;27;2410;-60
2022/04/20 11:30:00;;;;;;;;;;;;;;;20.11;42.69;101134.53;5125988;27;2628;-59
2022/04/20 11:32:26;;;;;;;;;;;;;;;20.11;42.71;101143.16;5124716;27;2272;-59
2022/04/20 11:35:05;;;;;;;;;;;;;;;20.08;42.73;101142.31;5116027;27;3457;-59
2022/04/20 11:37:33;;;;;;;;;;;;;;;20.07;42.28;101144.44;5123493;27;3279;-59
2022/04/20 11:40:07;;;;;;;;;;;;;;;20.06;42.17;101136.44;5107468;27;2414;-59
2022/04/20 11:42:35;;;;;;;;;;;;;;;20.04;41.82;101142.84;5125778;27;2441;-60
2022/04/20 11:45:02;;;;;;;;;;;;;;;20.09;41.25;101140.94;5124730;27;2641;-60
2022/04/20 11:47:30;;;;;;;;;;;;;;;20.05;41.32;101132.84;5098240;27;3424;-60
2022/04/20 11:49:57;;;;;;;;;;;;;;;20.03;41.18;101143.50;5088028;27;3297;-60
2022/04/20 11:52:57;;;;;;;;;;;;;;;20.01;40.83;101141.25;5124700;27;2598;-59
2022/04/20 11:55:53;;;;;;;;;;;;;;;19.99;40.95;101126.75;5113246;27;2343;-59
2022/04/20 11:58:19;;;;;;;;;;;;;;;19.94;40.65;101113.56;5117464;28;3259;-60
2022/04/20 12:00:45;;;;;;;;;;;;;;;19.96;40.35;101105.06;5124233;28;3462;-59
2022/04/20 12:03:12;;;;;;;;;;;;;;;19.97;39.99;101100.78;5124622;28;2462;-58
2022/04/20 12:05:38;;;;;;;;;;;;;;;20.01;41.24;101106.75;5126370;28;2458;-58
2022/04/20 12:08:05;;;;;;;;;;;;;;;20.10;41.80;101099.28;5107942;28;2057;-58
2022/04/20 12:10:32;;;;;;;;;;;;;;;20.15;41.63;101098.09;5123919;28;2423;-58
2022/04/20 12:13:01;;;;;;;;;;;;;;;20.17;41.71;101091.72;5125194;28;2528;-58
2022/04/20 12:15:28;;;;;;;;;;;;;;;20.23;41.60;101101.41;5123325;28;2594;-58
2022/04/20 12:17:57;;;;;;;;;;;;;;;20.27;41.73;101101.63;5105582;28;2580;-58
2022/04/20 12:20:24;;;;;;;;;;;;;;;20.31;41.75;101103.94;5107111;28;1686;-59
2022/04/20 12:23:03;;;;;;;;;;;;;;;20.29;41.79;101110.34;5126256;28;2106;-58
2022/04/20 12:25:29;;;;;;;;;;;;;;;20.33;41.80;101097.56;5126746;28;2566;-58
2022/04/20 12:27:56;;;;;;;;;;;;;;;20.33;41.79;101089.66;5126426;28;2283;-58
2022/04/20 12:30:35;;;;;;;;;;;;;;;20.34;41.87;101091.16;5124483;28;2564;-58
2022/04/20 12:33:04;;;;;;;;;;;;;;;20.35;41.85;101084.00;5123576;28;2506;-58
2022/04/20 12:35:31;;;;;;;;;;;;;;;20.41;41.93;101077.81;5125743;28;2379;-58
2022/04/20 12:38:07;;;;;;;;;;;;;;;20.39;42.02;101098.59;5096505;28;3287;-59
2022/04/20 12:40:36;;;;;;;;;;;;;;;20.39;42.00;101092.84;5101328;28;2352;-59
2022/04/20 12:43:05;;;;;;;;;;;;;;;20.39;42.08;101098.59;5124132;28;3608;-59
2022/04/20 12:45:36;;;;;;;;;;;;;;;20.39;42.13;101086.38;5101895;28;2649;-59
2022/04/20 12:48:04;;;;;;;;;;;;;;;20.39;42.11;101092.13;5123327;28;2584;-59
2022/04/20 12:50:34;;;;;;;;;;;;;;;20.42;42.19;101079.31;5120704;28;2527;-59
2022/04/20 12:53:01;;;;;;;;;;;;;;;20.42;42.14;101079.31;5121114;27;2659;-59
2022/04/20 12:55:37;;;;;;;;;;;;;;;20.40;42.23;101071.31;5125376;28;2391;-59
2022/04/20 13:03:45;;;;;;;;;;;;;;;20.48;42.40;101060.22;5122474;28;2375;-58
2022/04/20 13:06:12;;;;;;;;;;;;;;;20.48;42.37;101065.97;5120834;27;2534;-57
2022/04/20 13:08:40;;;;;;;;;;;;;;;20.51;42.35;101056.06;5123199;27;2520;-58
2022/04/20 13:11:10;;;;;;;;;;;;;;;20.53;42.35;101055.41;5128732;27;2476;-59
2022/04/20 13:13:57;;;;;;;;;;;;;;;20.53;42.38;101048.94;5122024;27;3345;-58
2022/04/20 13:16:23;;;;;;;;;;;;;;;20.54;42.35;101050.41;5126756;27;2456;-59
2022/04/20 13:18:51;;;;;;;;;;;;;;;20.55;42.40;101046.13;5124032;27;2374;-59
2022/04/20 13:21:17;;;;;;;;;;;;;;;20.53;42.29;101038.16;5128243;27;2931;-58
2022/04/20 13:23:43;;;;;;;;;;;;;;;20.54;42.34;101028.13;5122603;27;2641;-58
2022/04/20 13:28:55;;;;;;;;;;;;;;;20.51;42.46;101027.28;5126700;27;2809;-57
2022/04/20 13:31:22;;;;;;;;;;;;;;;20.46;42.70;101037.13;5127540;27;2192;-58
2022/04/20 13:33:49;;;;;;;;;;;;;;;20.45;42.71;101029.84;5123316;27;2925;-60
2022/04/20 13:36:15;;;;;;;;;;;;;;;20.43;42.77;101029.78;5125487;27;2654;-60
2022/04/20 13:38:41;;;;;;;;;;;;;;;20.46;42.75;101028.47;5120072;27;3330;-60
2022/04/20 13:41:08;;;;;;;;;;;;;;;20.49;42.62;101015.69;5124562;27;2838;-60
2022/04/20 13:43:35;;;;;;;;;;;;;;;20.46;42.83;101010.47;5116481;27;3344;-59
2022/04/20 13:46:01;;;;;;;;;;;;;;;20.47;42.69;101009.81;5120549;27;2839;-59
2022/04/20 13:48:28;;;;;;;;;;;;;;;20.46;42.68;101005.47;5117875;27;2994;-59
2022/04/20 13:50:54;;;;;;;;;;;;;;;20.45;42.86;100998.22;5119554;27;3340;-59
2022/04/20 13:53:20;;;;;;;;;;;;;;;20.45;42.80;101003.97;5122373;27;3399;-59